createdAt,value
2022-11-09T00:01:34.034Z,100301.94
2022-11-09T00:04:02.777Z,100287.66
2022-11-09T00:06:34.146Z,100289.91
2022-11-09T00:09:07.911Z,100283.00
2022-11-09T00:11:40.828Z,100291.13
2022-11-09T00:14:17.348Z,100295.31
2022-11-09T00:16:46.962Z,100286.84
2022-11-09T00:19:19.600Z,100300.13
2022-11-09T00:21:46.579Z,100289.75
2022-11-09T00:24:13.884Z,100284.31
2022-11-09T00:26:41.450Z,100280.66
2022-11-09T00:29:08.437Z,100295.81
2022-11-09T00:31:44.697Z,100306.13
2022-11-09T00:34:15.943Z,100304.28
2022-11-09T00:36:43.506Z,100314.13
2022-11-09T00:39:10.434Z,100292.81
2022-11-09T00:41:39.268Z,100296.75
2022-11-09T00:44:06.247Z,100287.75
2022-11-09T00:46:33.386Z,100280.06
2022-11-09T00:49:00.543Z,100284.94
2022-11-09T00:51:27.803Z,100279.56
2022-11-09T00:53:57.436Z,100293.63
2022-11-09T00:56:25.003Z,100285.56
2022-11-09T00:58:56.501Z,100282.56
2022-11-09T01:01:27.031Z,100271.91
2022-11-09T01:03:54.053Z,100288.00
2022-11-09T01:06:23.943Z,100298.41
2022-11-09T01:08:51.881Z,100287.44
2022-11-09T01:11:19.915Z,100294.91
2022-11-09T01:13:47.176Z,100292.69
2022-11-09T01:16:18.705Z,100291.09
2022-11-09T01:18:46.028Z,100292.94
2022-11-09T01:21:14.733Z,100281.66
2022-11-09T01:23:43.058Z,100295.78
2022-11-09T01:26:13.284Z,100300.38
2022-11-09T01:28:40.309Z,100295.34
2022-11-09T01:31:11.363Z,100306.81
2022-11-09T01:33:38.369Z,100304.66
2022-11-09T01:36:07.796Z,100316.34
2022-11-09T01:38:36.755Z,100307.50
2022-11-09T01:41:05.398Z,100316.75
2022-11-09T01:43:35.142Z,100325.69
2022-11-09T01:46:26.090Z,100325.28
2022-11-09T01:49:02.568Z,100313.56
2022-11-09T01:51:38.620Z,100309.91
2022-11-09T01:54:12.332Z,100305.47
2022-11-09T01:56:40.642Z,100303.47
2022-11-09T01:59:14.481Z,100297.44
2022-11-09T02:01:43.253Z,100292.19
2022-11-09T02:04:16.888Z,100295.16
2022-11-09T02:06:45.198Z,100309.88
2022-11-09T02:09:37.798Z,100314.53
2022-11-09T02:12:06.522Z,100313.97
2022-11-09T02:14:36.315Z,100316.94
2022-11-09T02:17:03.299Z,100305.03
2022-11-09T02:19:30.322Z,100314.66
2022-11-09T02:21:58.519Z,100282.03
2022-11-09T02:24:25.769Z,100302.13
2022-11-09T02:26:53.531Z,100307.94
2022-11-09T02:29:33.764Z,100314.63
2022-11-09T02:32:05.216Z,100304.13
2022-11-09T02:34:32.464Z,100301.31
2022-11-09T02:36:59.450Z,100283.78
2022-11-09T02:39:28.708Z,100292.22
2022-11-09T02:42:21.019Z,100280.13
2022-11-09T02:44:55.461Z,100299.25
2022-11-09T02:47:22.615Z,100274.72
2022-11-09T02:49:50.211Z,100297.31
2022-11-09T02:52:17.563Z,100300.28
2022-11-09T02:54:45.854Z,100294.69
2022-11-09T02:57:13.002Z,100304.84
2022-11-09T02:59:40.033Z,100316.59
2022-11-09T03:02:07.116Z,100326.88
2022-11-09T03:04:33.931Z,100323.31
2022-11-09T03:07:02.080Z,100316.44
2022-11-09T03:09:31.670Z,100323.94
2022-11-09T03:11:59.100Z,100325.13
2022-11-09T03:14:25.901Z,100321.13
2022-11-09T03:16:56.869Z,100313.69
2022-11-09T03:19:24.897Z,100327.78
2022-11-09T03:21:53.281Z,100309.69
2022-11-09T03:24:25.210Z,100321.94
2022-11-09T03:26:56.151Z,100314.72
2022-11-09T03:29:23.070Z,100340.34
2022-11-09T03:31:50.008Z,100334.50
2022-11-09T03:34:16.934Z,100358.47
2022-11-09T03:36:45.152Z,100358.31
2022-11-09T03:39:12.637Z,100356.72
2022-11-09T03:41:40.621Z,100363.59
2022-11-09T03:44:08.752Z,100355.72
2022-11-09T03:46:35.791Z,100341.41
2022-11-09T03:49:02.767Z,100362.56
2022-11-09T03:51:29.833Z,100386.53
2022-11-09T03:53:56.686Z,100372.81
2022-11-09T03:56:23.517Z,100378.69
2022-11-09T03:58:50.205Z,100386.94
2022-11-09T04:01:16.987Z,100400.25
2022-11-09T04:03:43.902Z,100393.44
2022-11-09T04:06:10.742Z,100407.09
2022-11-09T04:08:37.611Z,100403.06
2022-11-09T04:11:04.464Z,100405.88
2022-11-09T04:13:31.273Z,100409.13
2022-11-09T04:15:57.946Z,100410.34
2022-11-09T04:18:24.972Z,100413.34
2022-11-09T04:20:52.108Z,100405.88
2022-11-09T04:23:19.070Z,100408.72
2022-11-09T04:25:46.137Z,100407.50
2022-11-09T04:28:18.431Z,100430.47
2022-11-09T04:30:45.258Z,100411.53
2022-11-09T04:33:12.194Z,100405.09
2022-11-09T04:35:39.246Z,100417.97
2022-11-09T04:38:08.430Z,100392.00
2022-11-09T04:40:36.218Z,100408.72
2022-11-09T04:43:04.907Z,100417.97
2022-11-09T04:45:34.980Z,100410.13
2022-11-09T04:48:05.267Z,100419.19
2022-11-09T04:50:33.233Z,100410.50
2022-11-09T04:53:11.682Z,100415.16
2022-11-09T04:55:39.405Z,100424.00
2022-11-09T04:58:07.027Z,100413.13
2022-11-09T05:00:34.491Z,100429.25
2022-11-09T05:03:05.189Z,100424.81
2022-11-09T05:05:36.845Z,100436.53
2022-11-09T05:08:04.982Z,100417.16
2022-11-09T05:10:32.476Z,100438.53
2022-11-09T05:13:13.357Z,100436.31
2022-11-09T05:15:43.790Z,100434.47
2022-11-09T05:18:10.579Z,100426.59
2022-11-09T05:20:37.582Z,100427.19
2022-11-09T05:23:26.496Z,100421.34
2022-11-09T05:25:54.275Z,100414.06
2022-11-09T05:28:21.064Z,100441.28
2022-11-09T05:30:48.403Z,100427.09
2022-11-09T05:33:17.273Z,100405.75
2022-11-09T05:35:44.416Z,100420.69
2022-11-09T05:38:11.113Z,100421.28
2022-11-09T05:40:38.124Z,100424.69
2022-11-09T05:43:04.806Z,100430.13
2022-11-09T05:45:47.275Z,100438.19
2022-11-09T05:48:15.830Z,100420.00
2022-11-09T05:50:43.178Z,100429.47
2022-11-09T05:53:21.673Z,100424.88
2022-11-09T05:55:48.849Z,100438.41
2022-11-09T05:58:15.692Z,100419.84
2022-11-09T06:00:42.698Z,100433.16
2022-11-09T06:03:11.736Z,100435.19
2022-11-09T06:05:40.738Z,100413.81
2022-11-09T06:08:11.063Z,100424.94
2022-11-09T06:10:38.118Z,100426.69
2022-11-09T06:13:07.581Z,100411.00
2022-11-09T06:15:34.758Z,100425.91
2022-11-09T06:18:04.628Z,100427.50
2022-11-09T06:20:33.206Z,100439.78
2022-11-09T06:23:05.018Z,100432.97
2022-11-09T06:25:36.443Z,100444.66
2022-11-09T06:28:03.451Z,100436.31
2022-11-09T06:30:31.473Z,100439.13
2022-11-09T06:33:03.246Z,100461.69
2022-11-09T06:35:30.499Z,100443.09
2022-11-09T06:37:59.098Z,100452.78
2022-11-09T06:40:28.862Z,100451.22
2022-11-09T06:42:58.423Z,100462.72
2022-11-09T06:45:26.089Z,100454.00
2022-11-09T06:47:56.758Z,100446.34
2022-11-09T06:50:24.061Z,100440.72
2022-11-09T06:52:50.963Z,100456.84
2022-11-09T06:55:28.479Z,100456.88
2022-11-09T06:57:56.078Z,100451.16
2022-11-09T07:00:24.996Z,100455.81
2022-11-09T07:02:55.070Z,100469.34
2022-11-09T07:05:22.116Z,100475.81
2022-11-09T07:07:51.048Z,100476.78
2022-11-09T07:10:18.728Z,100476.41
2022-11-09T07:12:48.790Z,100489.91
2022-11-09T07:15:18.463Z,100468.53
2022-11-09T07:17:47.178Z,100467.38
2022-11-09T07:20:15.161Z,100495.25
2022-11-09T07:22:42.833Z,100474.06
2022-11-09T07:25:12.693Z,100487.81
2022-11-09T07:27:39.496Z,100475.56
2022-11-09T07:30:07.568Z,100463.47
2022-11-09T07:33:06.861Z,100460.84
2022-11-09T07:35:23.086Z,100487.06
2022-11-09T07:37:50.127Z,100480.78
2022-11-09T07:40:20.036Z,100483.66
2022-11-09T07:42:47.023Z,100489.31
2022-11-09T07:45:14.061Z,100494.75
2022-11-09T07:47:43.466Z,100492.75
2022-11-09T07:50:13.234Z,100487.09
2022-11-09T07:52:42.391Z,100478.59
2022-11-09T07:55:11.844Z,100506.88
2022-11-09T07:57:39.348Z,100493.19
2022-11-09T08:00:12.204Z,100501.84
2022-11-09T08:02:42.067Z,100476.88
2022-11-09T08:05:09.095Z,100485.34
2022-11-09T08:07:36.052Z,100493.81
2022-11-09T08:10:02.911Z,100497.44
2022-11-09T08:12:35.781Z,100491.38
2022-11-09T08:15:05.074Z,100498.66
2022-11-09T08:17:32.418Z,100509.56
2022-11-09T08:19:59.466Z,100516.81
2022-11-09T08:22:26.696Z,100501.66
2022-11-09T08:24:56.706Z,100519.41
2022-11-09T08:27:25.707Z,100508.34
2022-11-09T08:29:58.198Z,100535.75
2022-11-09T08:32:25.483Z,100528.50
2022-11-09T08:34:52.375Z,100516.78
2022-11-09T08:37:19.354Z,100529.06
2022-11-09T08:39:47.666Z,100530.09
2022-11-09T08:42:14.945Z,100531.69
2022-11-09T08:44:42.200Z,100545.22
2022-11-09T08:47:09.316Z,100533.91
2022-11-09T08:49:36.828Z,100538.75
2022-11-09T08:52:04.486Z,100535.72
2022-11-09T08:54:42.604Z,100539.31
2022-11-09T08:57:10.342Z,100546.97
2022-11-09T08:59:37.452Z,100530.63
2022-11-09T09:02:05.313Z,100531.41
2022-11-09T09:04:32.153Z,100536.84
2022-11-09T09:07:02.972Z,100532.81
2022-11-09T09:09:30.359Z,100529.56
2022-11-09T09:12:03.086Z,100531.97
2022-11-09T09:14:35.492Z,100542.84
2022-11-09T09:17:02.990Z,100543.63
2022-11-09T09:19:30.567Z,100531.56
2022-11-09T09:21:59.249Z,100522.72
2022-11-09T09:24:27.114Z,100554.19
2022-11-09T09:26:57.348Z,100546.53
2022-11-09T09:29:25.446Z,100566.31
2022-11-09T09:31:53.070Z,100540.84
2022-11-09T09:34:25.381Z,100559.53
2022-11-09T09:36:53.960Z,100559.66
2022-11-09T09:39:23.634Z,100572.94
2022-11-09T09:42:01.693Z,100553.22
2022-11-09T09:44:44.463Z,100558.91
2022-11-09T09:47:38.953Z,100572.78
2022-11-09T09:50:12.715Z,100563.69
2022-11-09T09:53:04.779Z,100576.22
2022-11-09T09:55:57.056Z,100589.72
2022-11-09T09:58:32.147Z,100582.78
2022-11-09T10:01:07.713Z,100591.44
2022-11-09T10:03:37.953Z,100597.78
2022-11-09T10:06:43.479Z,100611.28
2022-11-09T10:09:24.424Z,100610.44
2022-11-09T10:12:09.908Z,100603.97
2022-11-09T10:15:14.332Z,100612.84
2022-11-09T10:18:02.270Z,100621.50
2022-11-09T10:20:58.516Z,100621.50
2022-11-09T10:23:39.490Z,100611.88
2022-11-09T10:26:34.022Z,100610.66
2022-11-09T10:29:16.248Z,100619.16
2022-11-09T10:31:53.473Z,100621.44
2022-11-09T10:34:29.211Z,100622.03
2022-11-09T10:37:21.543Z,100631.69
2022-11-09T10:40:01.017Z,100616.63
2022-11-09T10:43:00.216Z,100627.00
2022-11-09T10:46:05.810Z,100626.22
2022-11-09T10:48:54.290Z,100643.06
2022-11-09T10:52:02.317Z,100636.13
2022-11-09T10:54:47.949Z,100623.97
2022-11-09T10:57:36.399Z,100645.69
2022-11-09T11:00:25.316Z,100619.91
2022-11-09T11:03:20.979Z,100634.06
2022-11-09T11:06:22.401Z,100629.69
2022-11-09T11:09:07.681Z,100644.06
2022-11-09T11:12:18.852Z,100622.25
2022-11-09T11:15:25.517Z,100626.31
2022-11-09T11:18:34.948Z,100631.63
2022-11-09T11:21:25.870Z,100616.09
2022-11-09T11:24:20.120Z,100642.97
2022-11-09T11:27:12.835Z,100642.28
2022-11-09T11:30:16.902Z,100642.38
2022-11-09T11:33:14.519Z,100647.06
2022-11-09T11:36:33.473Z,100643.84
2022-11-09T11:39:40.855Z,100613.59
2022-11-09T11:42:37.182Z,100632.75
2022-11-09T11:48:43.463Z,100643.03
2022-11-09T11:51:59.195Z,100630.13
2022-11-09T11:55:20.708Z,100623.44
2022-11-09T11:58:29.612Z,100623.94
2022-11-09T12:01:39.149Z,100630.28
2022-11-09T12:04:44.631Z,100617.97
2022-11-09T12:07:45.575Z,100617.19
2022-11-09T12:10:49.629Z,100622.19
2022-11-09T12:13:50.052Z,100640.13
2022-11-09T12:16:47.418Z,100645.38
2022-11-09T12:19:48.363Z,100629.69
2022-11-09T12:22:55.374Z,100660.81
2022-11-09T12:25:47.166Z,100646.69
2022-11-09T12:29:13.606Z,100637.00
2022-11-09T12:32:18.556Z,100666.00
2022-11-09T12:35:20.576Z,100647.28
2022-11-09T12:38:49.619Z,100629.28
2022-11-09T12:41:38.485Z,100644.25
2022-11-09T12:44:59.866Z,100648.88
2022-11-09T12:47:47.845Z,100648.28
2022-11-09T12:50:35.393Z,100649.44
2022-11-09T12:53:32.669Z,100646.63
2022-11-09T12:56:22.125Z,100668.63
2022-11-09T12:59:35.019Z,100663.53
2022-11-09T13:02:37.497Z,100658.31
2022-11-09T13:05:39.773Z,100660.38
2022-11-09T13:08:32.120Z,100663.81
2022-11-09T13:11:29.453Z,100679.75
2022-11-09T13:14:34.712Z,100667.22
2022-11-09T13:17:29.553Z,100667.81
2022-11-09T13:24:03.246Z,100680.13
2022-11-09T13:26:58.769Z,100670.44
2022-11-09T13:29:55.296Z,100690.03
2022-11-09T13:33:14.366Z,100675.94
2022-11-09T13:36:17.164Z,100682.81
2022-11-09T13:39:37.944Z,100700.16
2022-11-09T13:42:58.215Z,100691.47
2022-11-09T13:46:00.405Z,100684.38
2022-11-09T13:48:56.650Z,100684.38
2022-11-09T13:51:58.563Z,100692.41
2022-11-09T13:54:55.780Z,100685.72
2022-11-09T13:57:48.058Z,100706.88
2022-11-09T14:00:37.924Z,100704.44
2022-11-09T14:03:28.674Z,100704.25
2022-11-09T14:06:14.098Z,100711.94
2022-11-09T14:09:07.253Z,100721.31
2022-11-09T14:12:21.488Z,100732.22
2022-11-09T14:18:39.425Z,100716.84
2022-11-09T14:21:51.723Z,100742.34
2022-11-09T14:24:41.465Z,100748.25
2022-11-09T14:27:31.578Z,100735.75
2022-11-09T14:30:29.741Z,100736.38
2022-11-09T14:33:31.347Z,100746.88
2022-11-09T14:36:18.391Z,100741.19
2022-11-09T14:39:07.761Z,100746.66
2022-11-09T14:42:05.535Z,100753.94
2022-11-09T14:44:55.041Z,100747.25
2022-11-09T14:47:59.934Z,100762.00
2022-11-09T14:50:51.497Z,100758.81
2022-11-09T14:53:45.942Z,100752.53
2022-11-09T14:56:38.419Z,100773.94
2022-11-09T14:59:43.410Z,100762.66
2022-11-09T15:02:32.968Z,100777.78
2022-11-09T15:05:41.952Z,100778.41
2022-11-09T15:08:27.245Z,100789.69
2022-11-09T15:11:18.154Z,100790.91
2022-11-09T15:14:19.044Z,100804.47
2022-11-09T15:17:17.286Z,100804.28
2022-11-09T15:20:28.894Z,100802.66
2022-11-09T15:23:40.215Z,100815.00
2022-11-09T15:26:37.728Z,100824.28
2022-11-09T15:29:45.181Z,100823.28
2022-11-09T15:32:37.821Z,100825.09
2022-11-09T15:35:23.785Z,100826.44
2022-11-09T15:38:31.570Z,100830.84
2022-11-09T15:41:24.915Z,100815.25
2022-11-09T15:44:13.304Z,100814.63
2022-11-09T15:47:04.353Z,100827.53
2022-11-09T15:49:53.851Z,100834.81
2022-11-09T15:52:41.748Z,100824.06
2022-11-09T15:55:30.877Z,100832.50
2022-11-09T15:58:25.815Z,100839.78
2022-11-09T16:01:13.548Z,100849.03
2022-11-09T16:04:00.260Z,100854.28
2022-11-09T16:06:46.915Z,100861.78
2022-11-09T16:09:35.781Z,100869.06
2022-11-09T16:12:27.533Z,100861.78
2022-11-09T16:15:24.696Z,100859.72
2022-11-09T16:18:11.300Z,100869.41
2022-11-09T16:21:19.445Z,100870.25
2022-11-09T16:24:11.259Z,100869.78
2022-11-09T16:26:57.932Z,100871.38
2022-11-09T16:29:50.384Z,100882.66
2022-11-09T16:32:46.458Z,100876.38
2022-11-09T16:35:39.635Z,100893.47
2022-11-09T16:38:31.242Z,100895.06
2022-11-09T16:41:20.607Z,100904.31
2022-11-09T16:44:09.644Z,100903.47
2022-11-09T16:47:08.785Z,100909.03
2022-11-09T16:49:57.498Z,100929.34
2022-11-09T16:52:45.206Z,100921.03
2022-11-09T16:55:36.119Z,100929.84
2022-11-09T16:58:26.752Z,100953.63
2022-11-09T17:01:16.364Z,100947.13
2022-11-09T17:04:11.421Z,100971.06
2022-11-09T17:10:02.618Z,100995.97
2022-11-09T17:12:49.789Z,100981.91
2022-11-09T17:15:46.640Z,100996.25
2022-11-09T17:18:33.052Z,101002.75
2022-11-09T17:21:28.762Z,100997.91
2022-11-09T17:24:20.581Z,101007.19
2022-11-09T17:27:12.176Z,101021.66
2022-11-09T17:29:58.467Z,101019.50
2022-11-09T17:32:43.864Z,101009.13
2022-11-09T17:35:37.926Z,101031.59
2022-11-09T17:38:25.342Z,101011.84
2022-11-09T17:41:29.038Z,101022.19
2022-11-09T17:44:21.603Z,101026.69
2022-11-09T17:47:14.808Z,101026.16
2022-11-09T17:50:05.383Z,101022.41
2022-11-09T17:52:52.881Z,101031.97
2022-11-09T17:55:42.180Z,101044.84
2022-11-09T17:58:38.260Z,101046.03
2022-11-09T18:01:50.930Z,101066.97
2022-11-09T18:04:43.145Z,101065.09
2022-11-09T18:07:39.349Z,101055.25
2022-11-09T18:10:50.684Z,101061.66
2022-11-09T18:16:53.943Z,101073.75
2022-11-09T18:19:41.550Z,101073.28
2022-11-09T18:22:42.988Z,101086.31
2022-11-09T18:25:32.925Z,101087.47
2022-11-09T18:28:23.336Z,101093.16
2022-11-09T18:31:21.397Z,101085.94
2022-11-09T18:34:11.230Z,101080.06
2022-11-09T18:36:59.440Z,101091.44
2022-11-09T18:39:47.901Z,101109.31
2022-11-09T18:42:42.195Z,101108.66
2022-11-09T18:45:29.842Z,101127.63
2022-11-09T18:48:15.284Z,101113.00
2022-11-09T18:51:02.124Z,101114.69
2022-11-09T18:53:54.176Z,101117.84
2022-11-09T18:56:39.824Z,101139.69
2022-11-09T18:59:26.897Z,101140.06
2022-11-09T19:02:14.017Z,101131.00
2022-11-09T19:05:04.773Z,101130.16
2022-11-09T19:07:50.691Z,101128.53
2022-11-09T19:10:38.000Z,101131.78
2022-11-09T19:13:48.416Z,101154.50
2022-11-09T19:16:36.064Z,101151.63
2022-11-09T19:19:21.990Z,101158.13
2022-11-09T19:22:19.240Z,101154.59
2022-11-09T19:25:11.970Z,101163.59
2022-11-09T19:27:59.346Z,101154.50
2022-11-09T19:30:44.788Z,101164.34
2022-11-09T19:33:36.517Z,101177.88
2022-11-09T19:36:30.688Z,101190.91
2022-11-09T19:39:18.182Z,101197.22
2022-11-09T19:42:04.420Z,101200.78
2022-11-09T19:44:56.293Z,101188.88
2022-11-09T19:47:42.496Z,101181.72
2022-11-09T19:50:28.386Z,101210.13
2022-11-09T19:53:13.572Z,101208.25
2022-11-09T19:56:07.117Z,101215.50
2022-11-09T19:59:01.223Z,101235.09
2022-11-09T20:01:47.203Z,101232.78
2022-11-09T20:04:33.464Z,101214.72
2022-11-09T20:07:19.279Z,101242.75
2022-11-09T20:10:08.879Z,101235.09
2022-11-09T20:12:55.529Z,101235.97
2022-11-09T20:15:40.587Z,101253.25
2022-11-09T20:18:26.119Z,101243.69
2022-11-09T20:21:11.497Z,101248.78
2022-11-09T20:23:58.935Z,101246.66
2022-11-09T20:26:53.596Z,101276.53
2022-11-09T20:29:43.234Z,101256.94
2022-11-09T20:32:32.018Z,101283.88
2022-11-09T20:35:18.309Z,101294.50
2022-11-09T20:38:03.922Z,101281.47
2022-11-09T20:40:57.472Z,101284.56
2022-11-09T20:43:43.468Z,101287.84
2022-11-09T20:46:35.411Z,101288.81
2022-11-09T20:49:25.881Z,101299.94
2022-11-09T20:52:11.340Z,101301.88
2022-11-09T20:54:59.885Z,101304.16
2022-11-09T20:57:45.748Z,101315.94
2022-11-09T21:00:39.883Z,101331.59
2022-11-09T21:03:27.173Z,101329.31
2022-11-09T21:06:23.975Z,101315.94
2022-11-09T21:09:11.791Z,101325.22
2022-11-09T21:12:16.078Z,101329.31
2022-11-09T21:15:02.047Z,101343.00
2022-11-09T21:17:48.028Z,101334.53
2022-11-09T21:20:35.481Z,101309.72
2022-11-09T21:23:21.261Z,101321.78
2022-11-09T21:26:27.464Z,101324.09
2022-11-09T21:29:42.279Z,101339.59
2022-11-09T21:32:30.704Z,101332.91
2022-11-09T21:35:20.082Z,101340.41
2022-11-09T21:38:06.780Z,101356.41
2022-11-09T21:40:52.185Z,101346.59
2022-11-09T21:43:38.070Z,101368.47
2022-11-09T21:46:25.540Z,101347.91
2022-11-09T21:49:14.125Z,101358.84
2022-11-09T21:51:59.835Z,101345.47
2022-11-09T21:54:47.927Z,101358.50
2022-11-09T21:57:33.245Z,101346.09
2022-11-09T22:00:19.099Z,101363.22
2022-11-09T22:03:04.339Z,101366.50
2022-11-09T22:05:50.682Z,101382.34
2022-11-09T22:08:37.145Z,101374.34
2022-11-09T22:11:45.724Z,101380.03
2022-11-09T22:14:51.628Z,101384.63
2022-11-09T22:17:39.706Z,101390.16
2022-11-09T22:20:44.089Z,101389.34
2022-11-09T22:23:29.583Z,101399.44
2022-11-09T22:26:16.107Z,101398.47
2022-11-09T22:29:02.350Z,101407.28
2022-11-09T22:31:51.820Z,101401.22
2022-11-09T22:34:38.404Z,101407.59
2022-11-09T22:37:24.275Z,101417.00
2022-11-09T22:40:10.188Z,101420.91
2022-11-09T22:43:09.858Z,101424.38
2022-11-09T22:46:31.859Z,101431.09
2022-11-09T22:49:19.189Z,101410.84
2022-11-09T22:52:05.521Z,101419.97
2022-11-09T22:54:50.819Z,101411.16
2022-11-09T22:57:38.888Z,101433.97
2022-11-09T23:00:24.544Z,101420.28
2022-11-09T23:03:10.194Z,101425.16
2022-11-09T23:06:04.630Z,101431.97
2022-11-09T23:08:50.668Z,101451.41
2022-11-09T23:11:36.185Z,101455.44
2022-11-09T23:14:42.213Z,101466.22
2022-11-09T23:17:47.633Z,101464.63
2022-11-09T23:20:35.667Z,101452.16
2022-11-09T23:23:23.289Z,101461.91
2022-11-09T23:26:14.574Z,101458.31
2022-11-09T23:29:03.001Z,101488.72
2022-11-09T23:31:48.311Z,101481.81
2022-11-09T23:34:33.831Z,101474.13
2022-11-09T23:37:20.323Z,101490.59
2022-11-09T23:40:07.555Z,101491.56
2022-11-09T23:42:53.304Z,101492.84
2022-11-09T23:45:40.191Z,101498.22
2022-11-09T23:48:25.730Z,101498.75
2022-11-09T23:51:11.940Z,101497.44
2022-11-09T23:54:00.134Z,101506.72
2022-11-09T23:56:49.607Z,101521.25
2022-11-09T23:59:35.349Z,101506.16
